Time;durP1;ratioP1;P1;durP2;ratioP2;P2;SDS_P1;SDS_P2;PMS_P1;PMS_P2;Temp;Humidity;BMP_temperature;BMP_pressure;BME280_temperature;BME280_humidity;BME280_pressure;Samples;Min_cycle;Max_cycle;Signal;HPM_P1;HPM_P2
2021/03/25 00:02:04;;;;;;;12.32;8.18;;;3.20;99.90;;;;;;5043221;28;20225;-72
2021/03/25 00:04:31;;;;;;;8.90;7.20;;;3.20;99.90;;;;;;5043066;28;20201;-72
2021/03/25 00:07:00;;;;;;;12.55;8.88;;;3.20;99.90;;;;;;5044162;28;20205;-71
2021/03/25 00:09:29;;;;;;;13.00;8.13;;;3.20;99.90;;;;;;5042533;28;20196;-71
2021/03/25 00:11:55;;;;;;;10.10;7.45;;;3.30;99.90;;;;;;5043314;28;20332;-71
2021/03/25 00:14:22;;;;;;;12.95;8.00;;;3.30;99.90;;;;;;5042798;28;20221;-71
2021/03/25 00:16:49;;;;;;;12.35;8.18;;;3.30;99.90;;;;;;5043067;28;20232;-72
2021/03/25 00:19:16;;;;;;;13.65;8.00;;;3.20;99.90;;;;;;5042558;28;20588;-72
2021/03/25 00:21:43;;;;;;;12.77;8.70;;;3.20;99.90;;;;;;5043254;28;20221;-70
2021/03/25 00:24:13;;;;;;;11.63;8.18;;;3.20;99.90;;;;;;5043011;28;20204;-72
2021/03/25 00:26:40;;;;;;;10.98;7.60;;;3.10;99.90;;;;;;5043364;28;20205;-72
2021/03/25 00:29:06;;;;;;;10.00;7.10;;;3.10;99.90;;;;;;5043187;28;20262;-71
2021/03/25 00:31:33;;;;;;;10.98;7.93;;;3.10;99.90;;;;;;5042323;28;20259;-72
2021/03/25 00:34:01;;;;;;;12.23;8.13;;;3.10;99.90;;;;;;5043667;28;20221;-72
2021/03/25 00:36:27;;;;;;;13.32;8.65;;;3.00;99.90;;;;;;5043726;28;20941;-73
2021/03/25 00:38:54;;;;;;;12.10;8.57;;;3.00;99.90;;;;;;5041942;28;20305;-70
2021/03/25 00:41:21;;;;;;;13.38;8.50;;;3.00;99.90;;;;;;5042968;28;20225;-72
2021/03/25 00:43:47;;;;;;;13.35;8.85;;;3.00;99.90;;;;;;5043369;28;20205;-71
2021/03/25 00:46:14;;;;;;;14.25;8.65;;;3.00;99.90;;;;;;5043382;28;20734;-72
2021/03/25 00:48:41;;;;;;;10.38;7.75;;;2.90;99.90;;;;;;5042560;28;20205;-71
2021/03/25 00:51:08;;;;;;;11.88;8.52;;;2.90;99.90;;;;;;5042376;28;20633;-72
2021/03/25 00:53:36;;;;;;;12.63;7.95;;;2.90;99.90;;;;;;5042943;28;20211;-70
2021/03/25 00:56:04;;;;;;;10.95;7.95;;;2.90;99.90;;;;;;5043255;28;21158;-71
2021/03/25 00:58:31;;;;;;;10.98;7.43;;;2.90;99.90;;;;;;5044235;28;20300;-71
2021/03/25 01:00:57;;;;;;;12.35;7.05;;;2.90;99.90;;;;;;5043108;28;20235;-71
2021/03/25 01:03:27;;;;;;;12.98;8.18;;;2.90;99.90;;;;;;5043684;28;20209;-73
2021/03/25 01:05:54;;;;;;;12.80;8.68;;;2.80;99.90;;;;;;5044651;28;20201;-71
2021/03/25 01:08:22;;;;;;;13.02;8.20;;;2.80;99.90;;;;;;5045909;28;20219;-72
2021/03/25 01:10:51;;;;;;;12.05;7.75;;;2.70;99.90;;;;;;5046562;28;20197;-72
2021/03/25 01:13:24;;;;;;;12.35;7.82;;;2.60;99.90;;;;;;5067849;28;20280;-70
2021/03/25 01:15:51;;;;;;;9.52;8.07;;;2.60;99.90;;;;;;5070518;28;20216;-70
2021/03/25 01:18:18;;;;;;;10.77;7.80;;;2.60;99.90;;;;;;5064773;28;20266;-72
2021/03/25 01:20:45;;;;;;;16.30;9.25;;;2.60;99.90;;;;;;5043214;28;20291;-72
2021/03/25 01:23:12;;;;;;;10.23;7.68;;;2.50;99.90;;;;;;5046971;28;20205;-73
2021/03/25 01:25:40;;;;;;;11.13;8.38;;;2.50;99.90;;;;;;5046526;28;20211;-71
2021/03/25 01:28:09;;;;;;;12.77;7.97;;;2.50;99.90;;;;;;5047141;28;20239;-72
2021/03/25 01:30:36;;;;;;;14.27;8.68;;;2.50;99.90;;;;;;5049527;28;20205;-72
2021/03/25 01:33:05;;;;;;;11.90;8.25;;;2.50;99.90;;;;;;5052628;28;20231;-71
2021/03/25 01:35:32;;;;;;;11.77;8.75;;;2.50;99.90;;;;;;5117349;23;20225;-73
2021/03/25 01:37:58;;;;;;;10.70;7.72;;;2.50;99.90;;;;;;5052822;28;20204;-74
2021/03/25 01:40:28;;;;;;;12.10;7.82;;;2.40;99.90;;;;;;5052610;28;20201;-75
2021/03/25 01:43:09;;;;;;;10.82;8.00;;;2.40;99.90;;;;;;5052777;28;20225;-75
2021/03/25 01:45:43;;;;;;;16.75;7.55;;;2.40;99.90;;;;;;5052673;28;20216;-73
2021/03/25 01:48:11;;;;;;;11.98;7.80;;;2.40;99.90;;;;;;5052845;28;20204;-76
2021/03/25 01:50:37;;;;;;;12.73;8.45;;;2.30;99.90;;;;;;5052416;28;20211;-75
2021/03/25 01:53:28;;;;;;;12.50;8.13;;;2.30;99.90;;;;;;5052895;28;20228;-75
2021/03/25 01:56:02;;;;;;;12.25;8.40;;;2.30;99.90;;;;;;5052784;28;20216;-76
2021/03/25 01:59:03;;;;;;;10.38;7.93;;;2.30;99.90;;;;;;5052810;28;20203;-75
2021/03/25 02:01:35;;;;;;;11.10;8.77;;;2.20;99.90;;;;;;5052531;28;20247;-75
2021/03/25 02:04:32;;;;;;;13.30;8.27;;;2.10;99.90;;;;;;5052279;28;20552;-75
2021/03/25 02:07:04;;;;;;;12.65;8.48;;;2.20;99.90;;;;;;5051834;28;20201;-75
2021/03/25 02:09:41;;;;;;;9.73;7.97;;;2.10;99.90;;;;;;5051546;28;20664;-75
2021/03/25 02:12:16;;;;;;;10.77;7.80;;;2.10;99.90;;;;;;5052383;28;20229;-75
2021/03/25 02:14:51;;;;;;;13.93;8.68;;;2.10;99.90;;;;;;5052236;28;20597;-75
2021/03/25 02:17:24;;;;;;;9.65;8.00;;;2.10;99.90;;;;;;5052050;28;20680;-75
2021/03/25 02:20:31;;;;;;;11.07;7.80;;;2.10;99.90;;;;;;5051631;28;20205;-74
2021/03/25 02:23:20;;;;;;;13.02;7.93;;;2.10;99.90;;;;;;5046160;28;20221;-75
2021/03/25 02:25:50;;;;;;;12.15;7.80;;;2.10;99.90;;;;;;5052144;28;20270;-74
2021/03/25 02:28:27;;;;;;;15.43;8.65;;;2.10;99.90;;;;;;5052256;28;20208;-74
2021/03/25 02:31:08;;;;;;;11.93;8.35;;;2.10;99.90;;;;;;5047386;28;20209;-74
2021/03/25 02:33:35;;;;;;;11.13;8.20;;;2.10;99.90;;;;;;5051337;28;20204;-74
2021/03/25 02:36:06;;;;;;;14.00;7.57;;;2.00;99.90;;;;;;5051802;28;20903;-74
2021/03/25 02:38:35;;;;;;;11.68;7.45;;;2.00;99.90;;;;;;5052006;28;20208;-75
2021/03/25 02:41:05;;;;;;;11.77;8.75;;;2.00;99.90;;;;;;5051769;28;20248;-75
2021/03/25 02:43:37;;;;;;;12.25;8.05;;;2.00;99.90;;;;;;5051583;28;20209;-73
2021/03/25 02:46:08;;;;;;;10.15;7.00;;;2.00;99.90;;;;;;5051452;28;20209;-75
2021/03/25 02:48:36;;;;;;;11.23;7.80;;;2.00;99.90;;;;;;5051116;28;20205;-74
2021/03/25 02:51:07;;;;;;;10.05;8.18;;;2.10;99.90;;;;;;5051585;28;20767;-75
2021/03/25 02:53:36;;;;;;;11.57;8.27;;;2.10;99.90;;;;;;5051347;28;20208;-74
2021/03/25 02:56:07;;;;;;;10.55;7.57;;;2.10;99.90;;;;;;5051316;28;20225;-75
2021/03/25 02:58:37;;;;;;;10.63;7.95;;;2.10;99.90;;;;;;5051328;28;20209;-73
2021/03/25 03:01:06;;;;;;;10.43;7.13;;;2.10;99.90;;;;;;5053131;28;20229;-75
2021/03/25 03:03:36;;;;;;;13.73;8.65;;;2.00;99.90;;;;;;5053418;28;20201;-75
2021/03/25 03:06:04;;;;;;;8.98;6.40;;;2.00;99.90;;;;;;5051860;28;20197;-75
2021/03/25 03:08:36;;;;;;;8.77;7.18;;;2.00;99.90;;;;;;5051429;28;20205;-75
2021/03/25 03:11:08;;;;;;;11.60;7.78;;;1.90;99.90;;;;;;5050970;28;20221;-74
2021/03/25 03:13:39;;;;;;;11.93;7.88;;;1.90;99.90;;;;;;5051185;28;20626;-75
2021/03/25 03:16:10;;;;;;;10.50;7.70;;;1.90;99.90;;;;;;5051222;28;20244;-75
2021/03/25 03:18:40;;;;;;;13.30;8.57;;;1.90;99.90;;;;;;5051137;28;20216;-75
2021/03/25 03:21:10;;;;;;;9.50;6.95;;;1.90;99.90;;;;;;5051568;28;20225;-75
2021/03/25 03:23:37;;;;;;;10.27;6.93;;;1.90;99.90;;;;;;5051237;28;20266;-75
2021/03/25 03:26:09;;;;;;;10.85;7.45;;;1.90;99.90;;;;;;5051331;28;20193;-74
2021/03/25 03:28:41;;;;;;;9.82;7.78;;;1.80;99.90;;;;;;5050622;28;20814;-75
2021/03/25 03:31:16;;;;;;;8.38;7.05;;;1.80;99.90;;;;;;5050808;28;20596;-74
2021/03/25 03:33:47;;;;;;;7.65;6.45;;;1.70;99.90;;;;;;5050373;28;20204;-74
2021/03/25 03:36:17;;;;;;;8.52;6.50;;;1.70;99.90;;;;;;5050413;28;20628;-75
2021/03/25 03:38:48;;;;;;;12.40;7.15;;;1.70;99.90;;;;;;5050171;28;20216;-75
2021/03/25 03:41:17;;;;;;;9.10;6.00;;;1.70;99.90;;;;;;5052096;28;20279;-74
2021/03/25 03:43:44;;;;;;;10.85;7.90;;;1.60;99.90;;;;;;5051132;28;20213;-75
2021/03/25 03:46:16;;;;;;;9.70;7.30;;;1.60;99.90;;;;;;5050839;28;20591;-75
2021/03/25 03:48:47;;;;;;;9.27;7.15;;;1.60;99.90;;;;;;5050423;28;20219;-74
2021/03/25 03:51:21;;;;;;;12.02;7.35;;;1.60;99.90;;;;;;5050955;28;20232;-75
2021/03/25 03:53:48;;;;;;;12.00;7.22;;;1.60;99.90;;;;;;5050405;28;20212;-74
2021/03/25 03:56:21;;;;;;;8.48;6.18;;;1.60;99.90;;;;;;5050927;28;20700;-75
2021/03/25 03:58:53;;;;;;;9.48;6.45;;;1.50;99.90;;;;;;5050014;28;20216;-75
2021/03/25 04:01:26;;;;;;;8.38;6.28;;;1.50;99.90;;;;;;5050412;28;20275;-74
2021/03/25 04:03:58;;;;;;;11.43;8.05;;;1.60;99.90;;;;;;5050779;28;20201;-75
2021/03/25 04:06:30;;;;;;;8.35;6.68;;;1.50;99.90;;;;;;5050837;28;20206;-75
2021/03/25 04:09:01;;;;;;;9.00;6.25;;;1.50;99.90;;;;;;5049877;28;20216;-75
2021/03/25 04:11:34;;;;;;;9.82;6.25;;;1.50;99.90;;;;;;5050412;28;20331;-75
2021/03/25 04:14:04;;;;;;;10.65;7.18;;;1.50;99.90;;;;;;5050362;28;20278;-75
2021/03/25 04:16:32;;;;;;;10.85;7.00;;;1.40;99.90;;;;;;5050820;28;20209;-76
2021/03/25 04:19:03;;;;;;;15.23;8.00;;;1.40;99.90;;;;;;5049687;28;20212;-75
2021/03/25 04:21:35;;;;;;;14.02;8.82;;;1.40;99.90;;;;;;5050268;28;20231;-75
2021/03/25 04:24:05;;;;;;;12.13;7.95;;;1.40;99.90;;;;;;5050818;28;20201;-75
2021/03/25 04:26:41;;;;;;;14.30;8.90;;;1.40;99.90;;;;;;5051829;28;20544;-75
2021/03/25 04:29:13;;;;;;;11.80;7.40;;;1.30;99.90;;;;;;5050458;28;20254;-75
2021/03/25 04:31:41;;;;;;;9.40;7.55;;;1.30;99.90;;;;;;5051440;28;20228;-75
2021/03/25 04:34:08;;;;;;;14.68;9.30;;;1.30;99.90;;;;;;5050555;28;20217;-75
2021/03/25 04:36:37;;;;;;;12.90;8.60;;;1.20;99.90;;;;;;5021269;28;20260;-74
2021/03/25 04:39:05;;;;;;;16.77;8.20;;;1.20;99.90;;;;;;5011512;28;20206;-75
2021/03/25 04:41:32;;;;;;;13.68;8.75;;;1.20;99.90;;;;;;5011795;28;20225;-76
2021/03/25 04:44:01;;;;;;;12.43;8.18;;;1.20;99.90;;;;;;5010308;28;20199;-76
2021/03/25 04:46:51;;;;;;;11.23;8.05;;;1.10;99.90;;;;;;5011085;28;20195;-75
2021/03/25 04:49:26;;;;;;;14.68;8.95;;;1.10;99.90;;;;;;5010383;28;20214;-75
2021/03/25 04:51:58;;;;;;;13.60;8.50;;;1.10;99.90;;;;;;5010409;28;20720;-74
2021/03/25 04:54:29;;;;;;;13.90;8.73;;;1.10;99.90;;;;;;5010696;28;20276;-75
2021/03/25 04:57:03;;;;;;;14.38;9.32;;;1.00;99.90;;;;;;5010351;28;20208;-76
2021/03/25 04:59:29;;;;;;;14.27;8.63;;;1.00;99.90;;;;;;5009403;28;20202;-75
2021/03/25 05:01:57;;;;;;;13.88;8.95;;;1.00;99.90;;;;;;5010221;28;20228;-76
2021/03/25 05:04:23;;;;;;;15.50;8.75;;;1.00;99.90;;;;;;5010120;28;20271;-76
2021/03/25 05:06:52;;;;;;;13.93;8.60;;;1.00;99.90;;;;;;5010092;28;20209;-75
2021/03/25 05:09:21;;;;;;;14.57;8.98;;;1.00;99.90;;;;;;5009486;28;20207;-74
2021/03/25 05:11:47;;;;;;;16.95;10.98;;;0.90;99.90;;;;;;5008987;28;20592;-72
2021/03/25 05:14:16;;;;;;;18.75;10.40;;;1.00;99.90;;;;;;5009759;28;20635;-76
2021/03/25 05:17:01;;;;;;;15.93;10.10;;;1.00;99.90;;;;;;5010033;28;20214;-76
2021/03/25 05:19:38;;;;;;;19.77;9.50;;;1.00;99.90;;;;;;5009143;28;20206;-75
2021/03/25 05:22:12;;;;;;;13.05;8.77;;;0.90;99.90;;;;;;5009719;28;20225;-74
2021/03/25 05:24:44;;;;;;;11.35;8.18;;;0.90;99.90;;;;;;5009482;28;20197;-75
2021/03/25 05:27:15;;;;;;;13.65;7.90;;;0.90;99.90;;;;;;5009440;28;20216;-74
2021/03/25 05:29:43;;;;;;;11.73;8.45;;;0.90;99.90;;;;;;5007329;28;20202;-73
2021/03/25 05:32:15;;;;;;;11.50;8.82;;;0.90;99.90;;;;;;5007597;28;20230;-75
2021/03/25 05:34:41;;;;;;;12.48;7.68;;;0.90;99.90;;;;;;5008917;28;20268;-76
2021/03/25 05:37:08;;;;;;;10.18;7.47;;;0.90;99.90;;;;;;5009233;28;20202;-76
2021/03/25 05:39:35;;;;;;;14.13;9.55;;;0.90;99.90;;;;;;5009006;28;20214;-75
2021/03/25 05:42:14;;;;;;;10.43;7.57;;;1.00;99.90;;;;;;5009465;28;20688;-75
2021/03/25 05:45:15;;;;;;;13.35;8.68;;;1.00;99.90;;;;;;5009650;28;20209;-75
2021/03/25 05:47:59;;;;;;;13.07;8.35;;;1.00;99.90;;;;;;5009129;28;20256;-73
2021/03/25 05:50:35;;;;;;;10.80;8.27;;;1.10;99.90;;;;;;5008909;28;20681;-74
2021/03/25 05:53:15;;;;;;;13.57;8.48;;;1.10;99.90;;;;;;5009510;28;20229;-75
2021/03/25 05:55:52;;;;;;;14.88;8.40;;;1.10;99.90;;;;;;5009187;28;20592;-75
2021/03/25 05:58:32;;;;;;;12.15;8.23;;;1.20;99.90;;;;;;5009171;28;20218;-74
2021/03/25 06:01:10;;;;;;;10.52;7.85;;;1.30;99.90;;;;;;5008785;28;20205;-75
2021/03/25 06:03:40;;;;;;;9.63;7.40;;;1.30;99.90;;;;;;5009026;28;20206;-74
2021/03/25 06:06:21;;;;;;;10.80;7.65;;;1.40;99.90;;;;;;5009089;28;20202;-75
2021/03/25 06:08:57;;;;;;;10.25;8.27;;;1.50;99.90;;;;;;5011263;28;20203;-75
2021/03/25 06:11:35;;;;;;;12.05;8.10;;;1.60;99.90;;;;;;5012441;28;20230;-75
2021/03/25 06:14:14;;;;;;;9.60;7.65;;;1.70;99.90;;;;;;5012261;28;20202;-74
2021/03/25 06:17:07;;;;;;;12.70;7.78;;;1.90;99.90;;;;;;5012173;28;20208;-74
2021/03/25 06:19:54;;;;;;;11.00;8.32;;;2.00;99.90;;;;;;5010383;28;20210;-74
2021/03/25 06:22:28;;;;;;;10.27;7.43;;;2.10;99.90;;;;;;5012163;28;20222;-74
2021/03/25 06:25:23;;;;;;;14.20;8.60;;;2.30;99.90;;;;;;5011973;28;20207;-73
2021/03/25 06:28:07;;;;;;;12.25;7.60;;;2.50;99.90;;;;;;5012254;28;20217;-75
2021/03/25 06:30:38;;;;;;;9.88;7.10;;;2.70;99.90;;;;;;5011427;28;20233;-75
2021/03/25 06:33:11;;;;;;;14.25;8.02;;;2.80;99.90;;;;;;5012053;28;20205;-74
2021/03/25 06:35:42;;;;;;;9.95;7.32;;;3.00;99.90;;;;;;5011352;28;20767;-74
2021/03/25 06:38:18;;;;;;;11.85;7.68;;;3.20;99.90;;;;;;5012175;28;20356;-74
2021/03/25 06:40:48;;;;;;;9.38;7.40;;;3.40;99.90;;;;;;5011180;28;20191;-74
2021/03/25 06:43:20;;;;;;;14.75;8.43;;;3.50;99.90;;;;;;5012010;28;20210;-75
2021/03/25 06:45:50;;;;;;;8.32;7.30;;;3.70;99.90;;;;;;5011858;28;20321;-73
2021/03/25 06:48:22;;;;;;;14.70;8.68;;;3.90;99.90;;;;;;5011483;28;20217;-74
2021/03/25 06:50:52;;;;;;;10.73;7.00;;;4.00;99.90;;;;;;5010870;28;20667;-75
2021/03/25 06:53:25;;;;;;;11.55;6.90;;;4.20;99.90;;;;;;5011626;28;20206;-73
2021/03/25 06:55:55;;;;;;;11.30;7.22;;;4.40;99.90;;;;;;5011543;28;20222;-75
2021/03/25 06:58:27;;;;;;;10.68;6.85;;;4.60;99.90;;;;;;5011358;28;20670;-75
2021/03/25 07:00:58;;;;;;;10.23;7.47;;;4.80;99.90;;;;;;5010921;28;20237;-75
2021/03/25 07:03:26;;;;;;;15.60;7.00;;;5.00;99.90;;;;;;5011492;28;20202;-73
2021/03/25 07:05:54;;;;;;;10.02;6.88;;;5.20;99.90;;;;;;5011381;28;20210;-75
2021/03/25 07:08:23;;;;;;;11.25;6.97;;;5.40;99.90;;;;;;5011683;28;20298;-75
2021/03/25 07:10:51;;;;;;;12.90;6.95;;;5.60;99.90;;;;;;5010543;28;20198;-75
2021/03/25 07:13:20;;;;;;;8.18;6.10;;;5.90;99.90;;;;;;5010308;28;20256;-75
2021/03/25 07:15:47;;;;;;;7.82;6.05;;;6.10;99.90;;;;;;5008371;28;20249;-76
2021/03/25 07:18:29;;;;;;;6.88;5.55;;;6.40;99.90;;;;;;5010045;28;20213;-76
2021/03/25 07:21:27;;;;;;;7.53;4.70;;;6.70;99.90;;;;;;5010487;28;20209;-76
2021/03/25 07:23:55;;;;;;;6.50;4.88;;;7.00;99.90;;;;;;5011907;28;20230;-76
2021/03/25 07:26:26;;;;;;;7.53;4.18;;;7.40;99.90;;;;;;5011333;28;20204;-77
2021/03/25 07:29:13;;;;;;;4.35;3.80;;;7.70;99.90;;;;;;5009991;28;20467;-79
2021/03/25 07:31:51;;;;;;;5.78;4.50;;;8.20;99.90;;;;;;5010520;28;20257;-78
2021/03/25 07:34:31;;;;;;;9.20;3.85;;;8.80;99.90;;;;;;5010520;28;20218;-78
2021/03/25 07:36:59;;;;;;;5.55;3.65;;;9.30;99.90;;;;;;5010860;28;20778;-77
2021/03/25 07:39:28;;;;;;;5.93;3.95;;;9.70;99.90;;;;;;5010737;28;20298;-78
2021/03/25 07:41:58;;;;;;;4.38;3.95;;;10.30;99.40;;;;;;5010934;28;20226;-77
2021/03/25 07:44:36;;;;;;;4.55;3.58;;;10.80;97.00;;;;;;5010502;28;20210;-78
2021/03/25 07:47:05;;;;;;;4.38;3.58;;;11.20;95.80;;;;;;5010496;28;20260;-78
2021/03/25 07:49:33;;;;;;;3.67;3.38;;;11.50;95.70;;;;;;5012124;28;20209;-78
2021/03/25 07:52:04;;;;;;;4.30;3.55;;;11.70;94.50;;;;;;5010416;28;20231;-78
2021/03/25 07:54:33;;;;;;;6.78;3.88;;;12.20;92.80;;;;;;5010414;28;20206;-79
2021/03/25 07:57:11;;;;;;;5.07;3.70;;;12.70;92.50;;;;;;5010403;28;20210;-77
2021/03/25 07:59:46;;;;;;;4.70;3.15;;;13.20;92.30;;;;;;5010024;28;20360;-77
2021/03/25 08:02:39;;;;;;;4.83;3.40;;;14.00;91.10;;;;;;5010595;28;20882;-79
2021/03/25 08:05:22;;;;;;;7.23;3.60;;;14.80;90.30;;;;;;5096888;22;20528;-73
2021/03/25 08:07:51;;;;;;;3.63;3.07;;;15.60;87.50;;;;;;5065060;28;20552;-73
2021/03/25 08:10:28;;;;;;;4.43;3.60;;;15.70;83.40;;;;;;5087161;28;20457;-74
2021/03/25 08:13:02;;;;;;;5.73;3.40;;;16.00;84.70;;;;;;5087860;28;20481;-74
2021/03/25 08:15:42;;;;;;;4.00;3.60;;;16.30;79.70;;;;;;5087744;28;20531;-74
2021/03/25 08:18:30;;;;;;;4.97;4.10;;;15.80;79.10;;;;;;5088213;28;20465;-74
2021/03/25 08:21:10;;;;;;;3.90;3.50;;;15.70;80.50;;;;;;5086372;28;20461;-73
2021/03/25 08:24:02;;;;;;;4.17;3.60;;;15.60;80.50;;;;;;5087766;28;20544;-74
2021/03/25 08:26:35;;;;;;;6.23;3.70;;;16.10;81.30;;;;;;5087885;28;20914;-73
2021/03/25 08:29:09;;;;;;;4.87;3.97;;;16.00;79.60;;;;;;5087492;28;20454;-73
2021/03/25 08:31:42;;;;;;;4.10;3.43;;;16.20;79.50;;;;;;5088003;28;20488;-73
2021/03/25 08:34:45;;;;;;;6.23;3.63;;;16.40;77.70;;;;;;5087889;28;20464;-73
2021/03/25 08:37:35;;;;;;;4.03;3.37;;;16.70;77.80;;;;;;5087673;28;20449;-73
2021/03/25 08:40:06;;;;;;;4.10;3.70;;;17.00;75.90;;;;;;5088349;28;20515;-74
2021/03/25 08:42:37;;;;;;;7.67;4.03;;;17.00;77.30;;;;;;5087878;28;20478;-74
2021/03/25 08:45:18;;;;;;;4.10;3.53;;;17.20;75.70;;;;;;5088641;28;20454;-73
2021/03/25 08:47:53;;;;;;;4.80;4.03;;;17.50;76.40;;;;;;5088150;28;20549;-72
2021/03/25 08:50:35;;;;;;;5.40;3.90;;;18.00;73.60;;;;;;5087602;28;20502;-73
2021/03/25 08:53:06;;;;;;;3.90;3.30;;;18.40;74.40;;;;;;5086832;28;20477;-73
2021/03/25 08:55:37;;;;;;;3.80;3.40;;;19.10;73.80;;;;;;5086535;28;20485;-72
2021/03/25 08:58:10;;;;;;;3.93;3.53;;;19.70;71.50;;;;;;5086930;28;21024;-73
2021/03/25 09:00:40;;;;;;;4.00;3.43;;;20.20;69.40;;;;;;5086227;28;20511;-73
2021/03/25 09:03:14;;;;;;;3.97;3.57;;;20.10;69.00;;;;;;5086882;28;20464;-73
2021/03/25 09:05:49;;;;;;;4.17;3.77;;;20.00;69.80;;;;;;5086547;28;20490;-73
2021/03/25 09:08:18;;;;;;;5.90;3.77;;;20.10;68.70;;;;;;5086697;28;20465;-71
2021/03/25 09:10:49;;;;;;;3.43;3.13;;;20.50;70.20;;;;;;5086068;28;20964;-73
2021/03/25 09:13:20;;;;;;;5.20;4.00;;;21.20;68.90;;;;;;5086438;28;20462;-73
2021/03/25 09:15:47;;;;;;;4.27;3.17;;;22.10;68.30;;;;;;5086426;28;20856;-73
2021/03/25 09:18:17;;;;;;;4.13;3.73;;;22.90;66.30;;;;;;5085958;28;20465;-71
2021/03/25 09:20:47;;;;;;;3.93;3.60;;;23.30;65.60;;;;;;5086150;28;20522;-71
2021/03/25 09:23:37;;;;;;;4.20;3.80;;;23.70;66.90;;;;;;5086748;28;20888;-73
2021/03/25 09:26:49;;;;;;;5.23;4.60;;;24.00;66.30;;;;;;5086401;28;20456;-73
2021/03/25 09:29:16;;;;;;;8.43;4.53;;;24.40;66.50;;;;;;5085803;28;20457;-73
2021/03/25 09:32:33;;;;;;;5.00;4.20;;;24.40;67.10;;;;;;5086686;28;20484;-72
2021/03/25 09:35:03;;;;;;;6.20;4.20;;;24.10;66.40;;;;;;5086805;28;20576;-73
2021/03/25 09:37:33;;;;;;;4.70;4.00;;;24.40;67.20;;;;;;5087099;28;20472;-73
2021/03/25 09:40:13;;;;;;;5.40;4.20;;;24.20;65.60;;;;;;5087151;28;20466;-71
2021/03/25 09:42:42;;;;;;;4.37;3.97;;;24.20;66.00;;;;;;5088614;28;20900;-72
2021/03/25 09:45:28;;;;;;;5.03;4.00;;;23.90;64.90;;;;;;5092102;28;20880;-71
2021/03/25 09:47:58;;;;;;;5.70;3.73;;;23.70;64.60;;;;;;5091473;28;20476;-72
2021/03/25 09:50:25;;;;;;;4.10;3.70;;;23.90;64.70;;;;;;5091602;28;20468;-72
2021/03/25 09:53:15;;;;;;;4.80;4.20;;;24.60;64.80;;;;;;5091641;28;20484;-73
2021/03/25 09:55:59;;;;;;;7.47;4.83;;;25.00;64.90;;;;;;5091284;28;20992;-72
2021/03/25 09:58:42;;;;;;;4.57;3.70;;;25.80;64.00;;;;;;5090686;28;20556;-72
2021/03/25 10:01:09;;;;;;;6.23;4.90;;;26.40;61.40;;;;;;5091507;28;20594;-74
2021/03/25 10:04:23;;;;;;;5.60;4.63;;;26.10;61.00;;;;;;5091204;28;20453;-72
2021/03/25 10:07:03;;;;;;;7.07;4.50;;;25.70;61.80;;;;;;5090625;28;20460;-72
2021/03/25 10:09:52;;;;;;;5.80;4.47;;;25.80;62.40;;;;;;5090697;28;20497;-72
2021/03/25 10:12:59;;;;;;;4.60;4.20;;;25.50;59.80;;;;;;5091143;28;20853;-72
2021/03/25 10:15:55;;;;;;;5.83;3.90;;;25.60;63.10;;;;;;5072994;28;20829;-72
2021/03/25 10:18:57;;;;;;;4.17;3.63;;;25.80;59.30;;;;;;5065900;28;20457;-73
2021/03/25 10:21:53;;;;;;;6.00;4.13;;;26.50;58.50;;;;;;5088205;28;20623;-73
2021/03/25 10:24:23;;;;;;;4.80;4.30;;;27.00;57.60;;;;;;5085289;28;21108;-72
2021/03/25 10:26:58;;;;;;;4.20;3.73;;;27.60;57.00;;;;;;5090440;28;20493;-73
2021/03/25 10:29:31;;;;;;;5.37;4.03;;;28.40;56.30;;;;;;5090003;28;20456;-72
2021/03/25 10:32:01;;;;;;;6.20;4.80;;;29.20;57.60;;;;;;5080343;28;20481;-73
2021/03/25 10:34:31;;;;;;;4.63;4.10;;;28.40;55.00;;;;;;5069111;28;20466;-73
2021/03/25 10:37:02;;;;;;;5.17;4.67;;;28.30;57.20;;;;;;5069856;28;20478;-73
2021/03/25 10:39:32;;;;;;;5.20;4.70;;;28.40;56.40;;;;;;5069425;28;20497;-73
2021/03/25 10:42:12;;;;;;;7.90;5.10;;;28.40;55.90;;;;;;5070381;28;20490;-73
2021/03/25 10:44:38;;;;;;;8.10;5.43;;;28.30;55.90;;;;;;5070304;28;20612;-72
2021/03/25 10:47:08;;;;;;;7.00;4.23;;;28.00;54.10;;;;;;5069461;28;21030;-73
2021/03/25 10:49:42;;;;;;;7.03;4.40;;;27.90;54.80;;;;;;5068097;28;20458;-73
2021/03/25 10:52:17;;;;;;;6.60;5.10;;;28.10;54.80;;;;;;5069371;28;20481;-73
2021/03/25 10:54:45;;;;;;;6.70;5.20;;;28.00;54.30;;;;;;5069270;28;20470;-72
2021/03/25 10:57:18;;;;;;;5.67;4.70;;;27.70;54.60;;;;;;5068966;28;20458;-73
2021/03/25 10:59:49;;;;;;;5.70;4.97;;;27.80;55.10;;;;;;5068612;28;20462;-73
2021/03/25 11:02:27;;;;;;;6.77;4.43;;;28.40;54.40;;;;;;5069457;28;20478;-74
2021/03/25 11:05:04;;;;;;;6.43;5.20;;;29.40;52.70;;;;;;5068851;28;20478;-74
2021/03/25 11:07:37;;;;;;;6.13;5.47;;;30.40;52.50;;;;;;5069162;28;20464;-74
2021/03/25 11:10:05;;;;;;;7.40;5.70;;;30.20;52.00;;;;;;5067790;28;21256;-73
2021/03/25 11:12:34;;;;;;;16.73;5.60;;;28.20;52.90;;;;;;5069396;28;20478;-73
2021/03/25 11:15:08;;;;;;;7.13;5.13;;;26.30;55.60;;;;;;5068894;28;20459;-74
2021/03/25 11:17:39;;;;;;;7.47;5.10;;;26.10;56.30;;;;;;5065183;28;20463;-73
2021/03/25 11:20:08;;;;;;;6.13;5.17;;;25.30;55.90;;;;;;5056771;28;20514;-73
2021/03/25 11:22:35;;;;;;;6.47;5.53;;;24.00;58.70;;;;;;5057732;28;20506;-74
2021/03/25 11:25:05;;;;;;;7.37;5.40;;;22.70;59.00;;;;;;5056824;28;20535;-72
2021/03/25 11:27:32;;;;;;;5.80;4.97;;;22.00;60.40;;;;;;5056079;28;20547;-73
2021/03/25 11:30:03;;;;;;;6.77;5.47;;;21.30;61.10;;;;;;5066175;28;20554;-73
2021/03/25 11:32:35;;;;;;;6.20;4.73;;;20.70;62.10;;;;;;5066477;28;20620;-73
2021/03/25 11:35:22;;;;;;;11.90;5.47;;;20.30;64.30;;;;;;5066722;28;20529;-74
2021/03/25 11:37:52;;;;;;;5.77;5.17;;;19.90;64.70;;;;;;5066412;28;20547;-74
2021/03/25 11:40:25;;;;;;;6.10;5.40;;;19.80;66.00;;;;;;5065872;28;20451;-73
2021/03/25 11:43:08;;;;;;;6.30;5.30;;;20.70;64.40;;;;;;5066405;28;20498;-73
2021/03/25 11:45:43;;;;;;;6.40;5.10;;;21.40;63.50;;;;;;5046168;28;20487;-73
2021/03/25 11:48:18;;;;;;;7.40;5.03;;;21.40;61.80;;;;;;5046432;28;20971;-73
2021/03/25 11:50:46;;;;;;;7.67;5.83;;;21.00;62.60;;;;;;5060684;28;20450;-72
2021/03/25 11:53:35;;;;;;;6.80;5.00;;;20.40;64.30;;;;;;5065938;28;20496;-73
2021/03/25 11:56:02;;;;;;;11.60;5.40;;;20.60;64.40;;;;;;5053993;28;20565;-73
2021/03/25 11:58:28;;;;;;;7.50;4.80;;;20.90;64.70;;;;;;5046075;28;21196;-73
2021/03/25 12:00:58;;;;;;;7.50;5.27;;;20.90;64.10;;;;;;5045548;28;21058;-73
2021/03/25 12:03:26;;;;;;;7.10;5.20;;;20.40;64.10;;;;;;5047074;28;20462;-73
2021/03/25 12:05:54;;;;;;;7.10;5.10;;;20.20;65.30;;;;;;5046638;28;20467;-74
2021/03/25 12:08:25;;;;;;;5.50;4.30;;;19.80;65.30;;;;;;5047167;28;20482;-73
2021/03/25 12:11:01;;;;;;;6.43;4.83;;;19.50;66.30;;;;;;5046960;28;20467;-74
2021/03/25 12:13:27;;;;;;;9.07;5.67;;;19.50;67.20;;;;;;5047538;28;20467;-73
2021/03/25 12:15:54;;;;;;;6.60;4.63;;;20.00;65.30;;;;;;5047188;28;20483;-74
2021/03/25 12:18:22;;;;;;;6.20;4.60;;;20.40;65.70;;;;;;5047374;28;20452;-73
2021/03/25 12:20:49;;;;;;;9.60;5.50;;;20.10;65.40;;;;;;5046762;28;20463;-74
2021/03/25 12:23:21;;;;;;;7.70;5.60;;;19.70;65.90;;;;;;5046993;28;20459;-73
2021/03/25 12:25:49;;;;;;;8.23;6.00;;;19.40;64.60;;;;;;5046709;28;20495;-74
2021/03/25 12:28:16;;;;;;;9.07;5.30;;;19.20;67.20;;;;;;5046236;28;20462;-74
2021/03/25 12:30:44;;;;;;;9.63;5.53;;;19.50;66.60;;;;;;5046063;28;20463;-74
2021/03/25 12:33:17;;;;;;;5.60;5.00;;;20.30;66.00;;;;;;5046669;28;20463;-73
2021/03/25 12:35:44;;;;;;;7.07;6.03;;;21.20;64.30;;;;;;5047307;28;20479;-74
2021/03/25 12:38:10;;;;;;;7.47;4.87;;;21.20;63.50;;;;;;5046571;28;20578;-73
2021/03/25 12:40:38;;;;;;;7.40;4.87;;;20.90;64.30;;;;;;5046668;28;20459;-73
2021/03/25 12:43:04;;;;;;;8.37;5.03;;;20.50;64.60;;;;;;5046581;28;20566;-73
2021/03/25 12:45:33;;;;;;;6.00;4.70;;;20.10;65.70;;;;;;5046764;28;20466;-74
2021/03/25 12:48:00;;;;;;;8.03;5.80;;;19.70;65.20;;;;;;5046546;28;20456;-73
2021/03/25 12:50:28;;;;;;;6.80;4.97;;;19.50;68.00;;;;;;5046334;28;20521;-73
2021/03/25 12:52:54;;;;;;;7.27;5.87;;;19.60;66.50;;;;;;5046072;28;21014;-73
2021/03/25 12:55:22;;;;;;;5.93;5.30;;;19.70;65.40;;;;;;5046377;28;21069;-73
2021/03/25 12:57:51;;;;;;;8.00;5.10;;;19.50;66.30;;;;;;5045442;28;20501;-73
2021/03/25 13:00:25;;;;;;;6.80;5.23;;;19.00;67.00;;;;;;5045715;28;20491;-73
2021/03/25 13:02:52;;;;;;;6.60;5.13;;;18.80;67.70;;;;;;5045722;28;20578;-73
2021/03/25 13:05:21;;;;;;;5.47;4.53;;;18.60;68.20;;;;;;5046212;28;20503;-73
2021/03/25 13:07:47;;;;;;;8.03;5.10;;;18.30;70.10;;;;;;5045738;28;20989;-73
2021/03/25 13:10:15;;;;;;;8.50;5.93;;;18.20;71.40;;;;;;5045110;28;20466;-73
2021/03/25 13:12:41;;;;;;;9.40;5.80;;;18.10;71.20;;;;;;5045697;28;20966;-73
2021/03/25 13:15:09;;;;;;;10.10;6.47;;;18.00;71.10;;;;;;5045709;28;20463;-73
2021/03/25 13:17:35;;;;;;;8.50;6.07;;;18.10;71.90;;;;;;5045188;28;20459;-73
2021/03/25 13:20:02;;;;;;;8.63;6.70;;;18.20;72.90;;;;;;5045892;28;20466;-73